sensor_id;sensor_type;location;lat;lon;timestamp;temperature;humidity
23471;DHT22;11908;50.806;4.424;2022-09-16T00:01:24;15.90;99.90
23471;DHT22;11908;50.806;4.424;2022-09-16T00:03:53;16.00;99.90
23471;DHT22;11908;50.806;4.424;2022-09-16T00:06:25;15.90;99.90
23471;DHT22;11908;50.806;4.424;2022-09-16T00:08:53;15.90;99.90
23471;DHT22;11908;50.806;4.424;2022-09-16T00:11:19;15.90;99.90
23471;DHT22;11908;50.806;4.424;2022-09-16T00:13:45;15.90;99.90
23471;DHT22;11908;50.806;4.424;2022-09-16T00:16:19;16.00;99.90
23471;DHT22;11908;50.806;4.424;2022-09-16T00:18:45;15.90;99.90
23471;DHT22;11908;50.806;4.424;2022-09-16T00:21:11;15.90;99.90
23471;DHT22;11908;50.806;4.424;2022-09-16T00:23:36;15.90;99.90
23471;DHT22;11908;50.806;4.424;2022-09-16T00:26:03;15.80;99.90
23471;DHT22;11908;50.806;4.424;2022-09-16T00:28:29;15.80;99.90
23471;DHT22;11908;50.806;4.424;2022-09-16T00:31:01;15.80;99.90
23471;DHT22;11908;50.806;4.424;2022-09-16T00:33:27;15.70;99.90
23471;DHT22;11908;50.806;4.424;2022-09-16T00:38:35;15.60;99.90
23471;DHT22;11908;50.806;4.424;2022-09-16T00:41:01;15.60;99.90
23471;DHT22;11908;50.806;4.424;2022-09-16T00:43:27;15.60;99.90
23471;DHT22;11908;50.806;4.424;2022-09-16T00:45:59;15.60;99.90
23471;DHT22;11908;50.806;4.424;2022-09-16T00:48:27;15.40;99.90
23471;DHT22;11908;50.806;4.424;2022-09-16T00:51:02;15.40;99.90
23471;DHT22;11908;50.806;4.424;2022-09-16T00:53:33;15.40;99.90
23471;DHT22;11908;50.806;4.424;2022-09-16T00:56:03;15.40;99.90
23471;DHT22;11908;50.806;4.424;2022-09-16T01:00:55;15.40;99.90
23471;DHT22;11908;50.806;4.424;2022-09-16T01:03:22;15.30;99.90
23471;DHT22;11908;50.806;4.424;2022-09-16T01:05:48;15.30;99.90
23471;DHT22;11908;50.806;4.424;2022-09-16T01:08:14;15.30;99.90
23471;DHT22;11908;50.806;4.424;2022-09-16T01:10:41;15.20;99.90
23471;DHT22;11908;50.806;4.424;2022-09-16T01:13:09;15.20;99.90
23471;DHT22;11908;50.806;4.424;2022-09-16T01:16:04;15.20;99.90
23471;DHT22;11908;50.806;4.424;2022-09-16T01:18:44;15.10;99.90
23471;DHT22;11908;50.806;4.424;2022-09-16T01:26:42;15.10;99.90
23471;DHT22;11908;50.806;4.424;2022-09-16T01:45:43;14.80;99.90
23471;DHT22;11908;50.806;4.424;2022-09-16T01:48:19;14.70;99.90
23471;DHT22;11908;50.806;4.424;2022-09-16T01:53:50;14.70;99.90
23471;DHT22;11908;50.806;4.424;2022-09-16T01:56:31;14.80;99.90
23471;DHT22;11908;50.806;4.424;2022-09-16T01:59:07;14.80;99.90
23471;DHT22;11908;50.806;4.424;2022-09-16T02:04:12;14.70;99.90
23471;DHT22;11908;50.806;4.424;2022-09-16T02:06:39;14.70;99.90
23471;DHT22;11908;50.806;4.424;2022-09-16T02:09:21;14.60;99.90
23471;DHT22;11908;50.806;4.424;2022-09-16T02:11:49;14.50;99.90
23471;DHT22;11908;50.806;4.424;2022-09-16T02:14:16;14.60;99.90
23471;DHT22;11908;50.806;4.424;2022-09-16T02:16:49;14.60;99.90
23471;DHT22;11908;50.806;4.424;2022-09-16T02:19:25;14.60;99.90
23471;DHT22;11908;50.806;4.424;2022-09-16T02:21:54;14.60;99.90
23471;DHT22;11908;50.806;4.424;2022-09-16T02:24:21;14.60;99.90
23471;DHT22;11908;50.806;4.424;2022-09-16T02:26:55;14.60;99.90
23471;DHT22;11908;50.806;4.424;2022-09-16T02:29:26;14.60;99.90
23471;DHT22;11908;50.806;4.424;2022-09-16T02:31:57;14.70;99.90
23471;DHT22;11908;50.806;4.424;2022-09-16T02:34:34;14.70;99.90
23471;DHT22;11908;50.806;4.424;2022-09-16T02:37:10;14.60;99.90
23471;DHT22;11908;50.806;4.424;2022-09-16T02:39:38;14.60;99.90
23471;DHT22;11908;50.806;4.424;2022-09-16T02:42:05;14.60;99.90
23471;DHT22;11908;50.806;4.424;2022-09-16T02:44:31;14.60;99.90
23471;DHT22;11908;50.806;4.424;2022-09-16T02:52:21;14.80;99.90
23471;DHT22;11908;50.806;4.424;2022-09-16T02:54:59;14.80;99.90
23471;DHT22;11908;50.806;4.424;2022-09-16T02:57:26;14.80;99.90
23471;DHT22;11908;50.806;4.424;2022-09-16T02:59:52;14.60;99.90
23471;DHT22;11908;50.806;4.424;2022-09-16T03:02:18;14.60;99.90
23471;DHT22;11908;50.806;4.424;2022-09-16T03:04:44;14.50;99.90
23471;DHT22;11908;50.806;4.424;2022-09-16T03:07:10;14.60;99.90
23471;DHT22;11908;50.806;4.424;2022-09-16T03:09:39;14.70;99.90
23471;DHT22;11908;50.806;4.424;2022-09-16T03:12:33;14.60;99.90
23471;DHT22;11908;50.806;4.424;2022-09-16T03:22:20;14.80;99.90
23471;DHT22;11908;50.806;4.424;2022-09-16T03:24:32;14.70;99.90
23471;DHT22;11908;50.806;4.424;2022-09-16T03:27:15;14.80;99.90
23471;DHT22;11908;50.806;4.424;2022-09-16T03:29:56;14.80;99.90
23471;DHT22;11908;50.806;4.424;2022-09-16T03:32:51;14.90;99.90
23471;DHT22;11908;50.806;4.424;2022-09-16T03:38:17;14.80;99.90
23471;DHT22;11908;50.806;4.424;2022-09-16T03:40:45;14.70;99.90
23471;DHT22;11908;50.806;4.424;2022-09-16T03:43:13;14.70;99.90
23471;DHT22;11908;50.806;4.424;2022-09-16T03:45:41;14.70;99.90
23471;DHT22;11908;50.806;4.424;2022-09-16T03:48:08;14.90;99.90
23471;DHT22;11908;50.806;4.424;2022-09-16T03:50:34;14.80;99.90
23471;DHT22;11908;50.806;4.424;2022-09-16T03:52:59;14.80;99.90
23471;DHT22;11908;50.806;4.424;2022-09-16T03:55:25;14.80;99.90
23471;DHT22;11908;50.806;4.424;2022-09-16T03:57:54;14.80;99.90
23471;DHT22;11908;50.806;4.424;2022-09-16T04:00:20;14.70;99.90
23471;DHT22;11908;50.806;4.424;2022-09-16T04:02:46;14.80;99.90
23471;DHT22;11908;50.806;4.424;2022-09-16T04:05:12;14.70;99.90
23471;DHT22;11908;50.806;4.424;2022-09-16T04:07:37;14.80;99.90
23471;DHT22;11908;50.806;4.424;2022-09-16T04:10:04;14.80;99.90
23471;DHT22;11908;50.806;4.424;2022-09-16T04:12:31;14.90;99.90
23471;DHT22;11908;50.806;4.424;2022-09-16T04:14:57;14.80;99.90
23471;DHT22;11908;50.806;4.424;2022-09-16T04:17:23;14.80;99.90
23471;DHT22;11908;50.806;4.424;2022-09-16T04:19:48;14.80;99.90
23471;DHT22;11908;50.806;4.424;2022-09-16T04:22:14;14.80;99.90
23471;DHT22;11908;50.806;4.424;2022-09-16T04:24:40;14.70;99.90
23471;DHT22;11908;50.806;4.424;2022-09-16T04:27:06;14.70;99.90
23471;DHT22;11908;50.806;4.424;2022-09-16T04:29:31;14.80;99.90
23471;DHT22;11908;50.806;4.424;2022-09-16T04:31:57;14.80;99.90
23471;DHT22;11908;50.806;4.424;2022-09-16T04:34:23;14.60;99.90
23471;DHT22;11908;50.806;4.424;2022-09-16T04:36:49;14.50;99.90
23471;DHT22;11908;50.806;4.424;2022-09-16T04:39:14;14.50;99.90
23471;DHT22;11908;50.806;4.424;2022-09-16T04:41:40;14.40;99.90
23471;DHT22;11908;50.806;4.424;2022-09-16T04:44:06;14.40;99.90
23471;DHT22;11908;50.806;4.424;2022-09-16T04:46:32;14.40;99.90
23471;DHT22;11908;50.806;4.424;2022-09-16T04:48:59;14.30;99.90
23471;DHT22;11908;50.806;4.424;2022-09-16T04:51:26;14.40;99.90
23471;DHT22;11908;50.806;4.424;2022-09-16T04:53:53;14.30;99.90
23471;DHT22;11908;50.806;4.424;2022-09-16T04:56:22;14.30;99.90
23471;DHT22;11908;50.806;4.424;2022-09-16T04:58:50;14.30;99.90
23471;DHT22;11908;50.806;4.424;2022-09-16T05:01:19;14.30;99.90
23471;DHT22;11908;50.806;4.424;2022-09-16T05:03:47;14.30;99.90
23471;DHT22;11908;50.806;4.424;2022-09-16T05:06:16;14.30;99.90
23471;DHT22;11908;50.806;4.424;2022-09-16T05:08:42;14.30;99.90
23471;DHT22;11908;50.806;4.424;2022-09-16T05:11:10;14.40;99.90
23471;DHT22;11908;50.806;4.424;2022-09-16T05:13:36;14.30;99.90
23471;DHT22;11908;50.806;4.424;2022-09-16T05:16:10;14.50;99.90
23471;DHT22;11908;50.806;4.424;2022-09-16T05:18:37;14.50;99.90
23471;DHT22;11908;50.806;4.424;2022-09-16T05:21:07;14.60;99.90
23471;DHT22;11908;50.806;4.424;2022-09-16T05:23:32;14.50;99.90
23471;DHT22;11908;50.806;4.424;2022-09-16T05:26:04;14.60;99.90
23471;DHT22;11908;50.806;4.424;2022-09-16T05:28:31;14.50;99.90
23471;DHT22;11908;50.806;4.424;2022-09-16T05:31:07;14.50;99.90
23471;DHT22;11908;50.806;4.424;2022-09-16T05:33:33;14.50;99.90
23471;DHT22;11908;50.806;4.424;2022-09-16T05:36:19;14.50;99.90
23471;DHT22;11908;50.806;4.424;2022-09-16T05:38:45;14.40;99.90
23471;DHT22;11908;50.806;4.424;2022-09-16T05:41:11;14.50;99.90
23471;DHT22;11908;50.806;4.424;2022-09-16T05:43:37;14.50;99.90
23471;DHT22;11908;50.806;4.424;2022-09-16T05:46:04;14.60;99.90
23471;DHT22;11908;50.806;4.424;2022-09-16T05:48:30;14.60;99.90
23471;DHT22;11908;50.806;4.424;2022-09-16T05:50:59;14.60;99.90
23471;DHT22;11908;50.806;4.424;2022-09-16T05:53:26;14.60;99.90
23471;DHT22;11908;50.806;4.424;2022-09-16T05:55:59;14.40;99.90
23471;DHT22;11908;50.806;4.424;2022-09-16T05:58:26;14.50;99.90
23471;DHT22;11908;50.806;4.424;2022-09-16T06:01:07;14.50;99.90
23471;DHT22;11908;50.806;4.424;2022-09-16T06:03:35;14.50;99.90
23471;DHT22;11908;50.806;4.424;2022-09-16T06:06:04;14.40;99.90
23471;DHT22;11908;50.806;4.424;2022-09-16T06:08:31;14.50;99.90
23471;DHT22;11908;50.806;4.424;2022-09-16T06:11:06;14.60;99.90
23471;DHT22;11908;50.806;4.424;2022-09-16T06:13:32;14.70;99.90
23471;DHT22;11908;50.806;4.424;2022-09-16T06:15:58;14.70;99.90
23471;DHT22;11908;50.806;4.424;2022-09-16T06:18:25;14.80;99.90
23471;DHT22;11908;50.806;4.424;2022-09-16T06:20:51;14.80;99.90
23471;DHT22;11908;50.806;4.424;2022-09-16T06:23:17;14.80;99.90
23471;DHT22;11908;50.806;4.424;2022-09-16T06:25:43;14.90;99.90
23471;DHT22;11908;50.806;4.424;2022-09-16T06:28:09;14.80;99.90
23471;DHT22;11908;50.806;4.424;2022-09-16T06:30:36;14.80;99.90
23471;DHT22;11908;50.806;4.424;2022-09-16T06:33:02;14.60;99.90
23471;DHT22;11908;50.806;4.424;2022-09-16T06:35:29;14.60;99.90
23471;DHT22;11908;50.806;4.424;2022-09-16T06:37:54;14.50;99.90
23471;DHT22;11908;50.806;4.424;2022-09-16T06:40:20;14.50;99.90
23471;DHT22;11908;50.806;4.424;2022-09-16T06:42:46;14.50;99.90
23471;DHT22;11908;50.806;4.424;2022-09-16T06:45:12;14.50;99.90
23471;DHT22;11908;50.806;4.424;2022-09-16T06:47:37;14.50;99.90
23471;DHT22;11908;50.806;4.424;2022-09-16T06:50:04;14.60;99.90
23471;DHT22;11908;50.806;4.424;2022-09-16T06:52:30;14.70;99.90
23471;DHT22;11908;50.806;4.424;2022-09-16T06:54:56;14.80;99.90
23471;DHT22;11908;50.806;4.424;2022-09-16T06:57:22;14.90;99.90
23471;DHT22;11908;50.806;4.424;2022-09-16T06:59:49;14.80;99.90
23471;DHT22;11908;50.806;4.424;2022-09-16T07:02:14;14.90;99.90
23471;DHT22;11908;50.806;4.424;2022-09-16T07:04:40;14.90;99.90
23471;DHT22;11908;50.806;4.424;2022-09-16T07:07:06;15.00;99.90
23471;DHT22;11908;50.806;4.424;2022-09-16T07:09:32;15.00;99.90
23471;DHT22;11908;50.806;4.424;2022-09-16T07:11:58;14.90;99.90
23471;DHT22;11908;50.806;4.424;2022-09-16T07:14:24;14.80;99.90
23471;DHT22;11908;50.806;4.424;2022-09-16T07:16:50;14.70;99.90
23471;DHT22;11908;50.806;4.424;2022-09-16T07:19:16;14.70;99.90
23471;DHT22;11908;50.806;4.424;2022-09-16T07:21:42;14.60;99.90
23471;DHT22;11908;50.806;4.424;2022-09-16T07:24:10;14.70;99.90
23471;DHT22;11908;50.806;4.424;2022-09-16T07:26:35;14.60;99.90
23471;DHT22;11908;50.806;4.424;2022-09-16T07:29:05;14.70;99.90
23471;DHT22;11908;50.806;4.424;2022-09-16T07:31:34;14.90;99.90
23471;DHT22;11908;50.806;4.424;2022-09-16T07:34:01;15.00;99.90
23471;DHT22;11908;50.806;4.424;2022-09-16T07:36:29;15.00;99.90
23471;DHT22;11908;50.806;4.424;2022-09-16T07:38:56;14.90;99.90
23471;DHT22;11908;50.806;4.424;2022-09-16T07:41:25;14.80;99.90
23471;DHT22;11908;50.806;4.424;2022-09-16T07:43:53;14.70;99.90
23471;DHT22;11908;50.806;4.424;2022-09-16T07:46:19;14.60;99.90
23471;DHT22;11908;50.806;4.424;2022-09-16T07:48:46;14.60;99.90
23471;DHT22;11908;50.806;4.424;2022-09-16T07:51:17;14.70;99.90
23471;DHT22;11908;50.806;4.424;2022-09-16T07:53:44;14.80;99.90
23471;DHT22;11908;50.806;4.424;2022-09-16T07:56:16;14.70;99.90
23471;DHT22;11908;50.806;4.424;2022-09-16T07:58:42;14.90;99.90
23471;DHT22;11908;50.806;4.424;2022-09-16T08:01:10;15.00;99.90
23471;DHT22;11908;50.806;4.424;2022-09-16T08:03:37;15.20;99.90
23471;DHT22;11908;50.806;4.424;2022-09-16T08:06:06;15.30;99.90
23471;DHT22;11908;50.806;4.424;2022-09-16T08:08:33;15.40;99.90
23471;DHT22;11908;50.806;4.424;2022-09-16T08:10:59;15.60;99.90
23471;DHT22;11908;50.806;4.424;2022-09-16T08:13:26;15.70;99.90
23471;DHT22;11908;50.806;4.424;2022-09-16T08:15:53;15.80;99.90
23471;DHT22;11908;50.806;4.424;2022-09-16T08:18:19;16.00;99.90
23471;DHT22;11908;50.806;4.424;2022-09-16T08:20:45;16.10;99.90
23471;DHT22;11908;50.806;4.424;2022-09-16T08:23:11;16.10;99.90
23471;DHT22;11908;50.806;4.424;2022-09-16T08:25:38;16.20;99.90
23471;DHT22;11908;50.806;4.424;2022-09-16T08:28:04;16.00;99.90
23471;DHT22;11908;50.806;4.424;2022-09-16T08:30:30;16.10;99.90
23471;DHT22;11908;50.806;4.424;2022-09-16T08:32:57;16.20;99.90
23471;DHT22;11908;50.806;4.424;2022-09-16T08:35:23;16.40;99.90
23471;DHT22;11908;50.806;4.424;2022-09-16T08:37:50;16.50;99.90
23471;DHT22;11908;50.806;4.424;2022-09-16T08:40:21;16.50;99.90
23471;DHT22;11908;50.806;4.424;2022-09-16T08:43:03;16.60;99.90
23471;DHT22;11908;50.806;4.424;2022-09-16T08:45:39;16.70;99.90
23471;DHT22;11908;50.806;4.424;2022-09-16T08:48:50;16.80;99.90
23471;DHT22;11908;50.806;4.424;2022-09-16T08:51:19;16.70;99.90
23471;DHT22;11908;50.806;4.424;2022-09-16T08:53:58;16.50;99.90
23471;DHT22;11908;50.806;4.424;2022-09-16T08:56:27;16.00;99.90
23471;DHT22;11908;50.806;4.424;2022-09-16T08:58:56;15.80;99.90
23471;DHT22;11908;50.806;4.424;2022-09-16T09:01:35;15.60;99.90
23471;DHT22;11908;50.806;4.424;2022-09-16T09:04:02;15.60;99.90
23471;DHT22;11908;50.806;4.424;2022-09-16T09:29:01;15.40;99.90
23471;DHT22;11908;50.806;4.424;2022-09-16T09:37:40;15.30;99.90
23471;DHT22;11908;50.806;4.424;2022-09-16T09:46:03;16.00;99.90
23471;DHT22;11908;50.806;4.424;2022-09-16T09:48:48;16.30;99.90
23471;DHT22;11908;50.806;4.424;2022-09-16T09:51:29;16.80;99.90
23471;DHT22;11908;50.806;4.424;2022-09-16T09:54:01;17.90;99.90
23471;DHT22;11908;50.806;4.424;2022-09-16T09:56:30;19.10;99.90
23471;DHT22;11908;50.806;4.424;2022-09-16T09:59:11;21.10;99.90
23471;DHT22;11908;50.806;4.424;2022-09-16T10:01:39;22.60;99.90
23471;DHT22;11908;50.806;4.424;2022-09-16T10:04:13;23.60;99.90
23471;DHT22;11908;50.806;4.424;2022-09-16T10:06:39;24.20;99.90
23471;DHT22;11908;50.806;4.424;2022-09-16T10:09:11;25.40;99.90
23471;DHT22;11908;50.806;4.424;2022-09-16T10:11:49;26.20;99.90
23471;DHT22;11908;50.806;4.424;2022-09-16T10:16:54;25.80;99.90
23471;DHT22;11908;50.806;4.424;2022-09-16T10:19:23;25.60;99.90
23471;DHT22;11908;50.806;4.424;2022-09-16T10:21:54;25.00;99.90
23471;DHT22;11908;50.806;4.424;2022-09-16T10:24:36;24.90;99.90
23471;DHT22;11908;50.806;4.424;2022-09-16T10:27:29;25.00;99.90
23471;DHT22;11908;50.806;4.424;2022-09-16T10:30:14;24.40;99.90
23471;DHT22;11908;50.806;4.424;2022-09-16T10:35:23;25.30;99.90
23471;DHT22;11908;50.806;4.424;2022-09-16T10:37:55;24.80;99.90
23471;DHT22;11908;50.806;4.424;2022-09-16T10:40:22;24.10;99.90
23471;DHT22;11908;50.806;4.424;2022-09-16T10:42:50;22.90;99.90
23471;DHT22;11908;50.806;4.424;2022-09-16T10:45:28;21.50;99.90
23471;DHT22;11908;50.806;4.424;2022-09-16T10:47:57;20.10;99.90
23471;DHT22;11908;50.806;4.424;2022-09-16T10:50:24;18.60;99.90
23471;DHT22;11908;50.806;4.424;2022-09-16T10:52:50;17.50;99.90
23471;DHT22;11908;50.806;4.424;2022-09-16T10:57:49;16.50;99.90
23471;DHT22;11908;50.806;4.424;2022-09-16T11:00:24;16.40;99.90
23471;DHT22;11908;50.806;4.424;2022-09-16T11:08:48;16.70;99.90
23471;DHT22;11908;50.806;4.424;2022-09-16T11:11:28;16.80;99.90
23471;DHT22;11908;50.806;4.424;2022-09-16T11:19:58;18.00;99.90
23471;DHT22;11908;50.806;4.424;2022-09-16T11:25:18;19.70;99.90
23471;DHT22;11908;50.806;4.424;2022-09-16T11:30:42;21.10;99.90
23471;DHT22;11908;50.806;4.424;2022-09-16T11:33:18;20.80;99.90
23471;DHT22;11908;50.806;4.424;2022-09-16T11:41:34;18.50;99.90
23471;DHT22;11908;50.806;4.424;2022-09-16T11:47:24;17.20;99.90
23471;DHT22;11908;50.806;4.424;2022-09-16T11:57:36;16.60;99.90
23471;DHT22;11908;50.806;4.424;2022-09-16T12:00:10;16.50;99.90
23471;DHT22;11908;50.806;4.424;2022-09-16T12:05:32;15.40;99.90
23471;DHT22;11908;50.806;4.424;2022-09-16T12:08:10;15.30;99.90
23471;DHT22;11908;50.806;4.424;2022-09-16T12:10:47;15.10;99.90
23471;DHT22;11908;50.806;4.424;2022-09-16T12:13:41;14.90;99.90
23471;DHT22;11908;50.806;4.424;2022-09-16T12:16:13;14.80;99.90
23471;DHT22;11908;50.806;4.424;2022-09-16T12:18:44;14.80;99.90
23471;DHT22;11908;50.806;4.424;2022-09-16T12:21:27;15.00;99.90
23471;DHT22;11908;50.806;4.424;2022-09-16T12:26:31;14.90;99.90
23471;DHT22;11908;50.806;4.424;2022-09-16T12:29:25;14.80;99.90
23471;DHT22;11908;50.806;4.424;2022-09-16T12:32:01;14.70;99.90
23471;DHT22;11908;50.806;4.424;2022-09-16T12:34:43;14.80;99.90
23471;DHT22;11908;50.806;4.424;2022-09-16T12:37:36;14.80;99.90
23471;DHT22;11908;50.806;4.424;2022-09-16T12:40:03;14.80;99.90
23471;DHT22;11908;50.806;4.424;2022-09-16T12:45:33;15.40;99.90
23471;DHT22;11908;50.806;4.424;2022-09-16T12:50:46;16.20;99.90
23471;DHT22;11908;50.806;4.424;2022-09-16T12:53:30;16.40;99.90
23471;DHT22;11908;50.806;4.424;2022-09-16T12:56:08;16.60;99.90
23471;DHT22;11908;50.806;4.424;2022-09-16T13:01:21;16.80;99.90
23471;DHT22;11908;50.806;4.424;2022-09-16T13:03:55;16.70;99.90
23471;DHT22;11908;50.806;4.424;2022-09-16T13:06:26;16.60;99.90
23471;DHT22;11908;50.806;4.424;2022-09-16T13:08:53;16.60;99.90
23471;DHT22;11908;50.806;4.424;2022-09-16T13:11:24;16.70;99.90
23471;DHT22;11908;50.806;4.424;2022-09-16T13:13:54;16.80;99.90
23471;DHT22;11908;50.806;4.424;2022-09-16T13:16:53;16.90;99.90
23471;DHT22;11908;50.806;4.424;2022-09-16T13:19:38;16.90;99.90
23471;DHT22;11908;50.806;4.424;2022-09-16T13:22:28;16.80;99.90
23471;DHT22;11908;50.806;4.424;2022-09-16T13:25:20;16.80;99.90
23471;DHT22;11908;50.806;4.424;2022-09-16T13:28:03;16.80;99.90
23471;DHT22;11908;50.806;4.424;2022-09-16T13:30:38;16.80;99.90
23471;DHT22;11908;50.806;4.424;2022-09-16T13:35:44;17.20;99.90
23471;DHT22;11908;50.806;4.424;2022-09-16T13:38:21;17.30;99.90
23471;DHT22;11908;50.806;4.424;2022-09-16T13:40:58;17.00;99.90
23471;DHT22;11908;50.806;4.424;2022-09-16T13:43:29;16.90;99.90
23471;DHT22;11908;50.806;4.424;2022-09-16T13:46:12;17.20;99.90
23471;DHT22;11908;50.806;4.424;2022-09-16T13:49:11;16.70;99.90
23471;DHT22;11908;50.806;4.424;2022-09-16T13:51:43;16.00;99.90
23471;DHT22;11908;50.806;4.424;2022-09-16T13:54:46;15.00;99.90
23471;DHT22;11908;50.806;4.424;2022-09-16T14:13:14;14.60;99.90
23471;DHT22;11908;50.806;4.424;2022-09-16T14:15:45;14.90;99.90
23471;DHT22;11908;50.806;4.424;2022-09-16T14:18:15;15.10;99.90
23471;DHT22;11908;50.806;4.424;2022-09-16T14:21:01;15.30;99.90
23471;DHT22;11908;50.806;4.424;2022-09-16T14:23:28;15.40;99.90
23471;DHT22;11908;50.806;4.424;2022-09-16T14:25:54;15.50;99.90
23471;DHT22;11908;50.806;4.424;2022-09-16T14:28:25;15.50;99.90
23471;DHT22;11908;50.806;4.424;2022-09-16T14:30:59;15.60;99.90
23471;DHT22;11908;50.806;4.424;2022-09-16T14:35:56;15.40;99.90
23471;DHT22;11908;50.806;4.424;2022-09-16T14:38:35;15.20;99.90
23471;DHT22;11908;50.806;4.424;2022-09-16T14:41:08;15.20;99.90
23471;DHT22;11908;50.806;4.424;2022-09-16T14:43:36;15.10;99.90
23471;DHT22;11908;50.806;4.424;2022-09-16T14:46:05;15.10;99.90
23471;DHT22;11908;50.806;4.424;2022-09-16T14:48:33;15.10;99.90
23471;DHT22;11908;50.806;4.424;2022-09-16T14:51:00;14.90;99.90
23471;DHT22;11908;50.806;4.424;2022-09-16T14:53:30;14.80;99.90
23471;DHT22;11908;50.806;4.424;2022-09-16T14:55:57;14.60;99.90
23471;DHT22;11908;50.806;4.424;2022-09-16T14:58:26;14.40;99.90
23471;DHT22;11908;50.806;4.424;2022-09-16T15:01:00;14.50;99.90
23471;DHT22;11908;50.806;4.424;2022-09-16T15:03:50;14.60;99.90
23471;DHT22;11908;50.806;4.424;2022-09-16T15:06:20;14.80;99.90
23471;DHT22;11908;50.806;4.424;2022-09-16T15:09:02;15.00;99.90
23471;DHT22;11908;50.806;4.424;2022-09-16T15:11:33;15.10;99.90
23471;DHT22;11908;50.806;4.424;2022-09-16T15:14:00;15.10;99.90
23471;DHT22;11908;50.806;4.424;2022-09-16T15:16:26;15.20;99.90
23471;DHT22;11908;50.806;4.424;2022-09-16T15:19:03;15.10;99.90
23471;DHT22;11908;50.806;4.424;2022-09-16T15:21:34;15.30;99.90
23471;DHT22;11908;50.806;4.424;2022-09-16T15:24:05;15.30;99.90
23471;DHT22;11908;50.806;4.424;2022-09-16T15:26:42;15.30;99.90
23471;DHT22;11908;50.806;4.424;2022-09-16T15:29:29;15.20;99.90
23471;DHT22;11908;50.806;4.424;2022-09-16T15:32:13;15.10;99.90
23471;DHT22;11908;50.806;4.424;2022-09-16T15:34:39;14.80;99.90
23471;DHT22;11908;50.806;4.424;2022-09-16T15:37:28;14.80;99.90
23471;DHT22;11908;50.806;4.424;2022-09-16T15:39:54;14.70;99.90
23471;DHT22;11908;50.806;4.424;2022-09-16T15:42:21;14.60;99.90
23471;DHT22;11908;50.806;4.424;2022-09-16T15:44:57;14.60;99.90
23471;DHT22;11908;50.806;4.424;2022-09-16T15:47:32;14.70;99.90
23471;DHT22;11908;50.806;4.424;2022-09-16T15:50:12;14.90;99.90
23471;DHT22;11908;50.806;4.424;2022-09-16T15:53:01;14.80;99.90
23471;DHT22;11908;50.806;4.424;2022-09-16T15:55:36;15.00;99.90
23471;DHT22;11908;50.806;4.424;2022-09-16T15:58:41;15.10;99.90
23471;DHT22;11908;50.806;4.424;2022-09-16T16:01:16;14.90;99.90
23471;DHT22;11908;50.806;4.424;2022-09-16T16:06:17;14.60;99.90
23471;DHT22;11908;50.806;4.424;2022-09-16T16:08:45;14.60;99.90
23471;DHT22;11908;50.806;4.424;2022-09-16T16:11:19;14.60;99.90
23471;DHT22;11908;50.806;4.424;2022-09-16T16:13:45;14.50;99.90
23471;DHT22;11908;50.806;4.424;2022-09-16T16:16:13;14.60;99.90
23471;DHT22;11908;50.806;4.424;2022-09-16T16:18:40;14.70;99.90
23471;DHT22;11908;50.806;4.424;2022-09-16T16:21:08;14.60;99.90
23471;DHT22;11908;50.806;4.424;2022-09-16T16:23:35;14.50;99.90
23471;DHT22;11908;50.806;4.424;2022-09-16T16:26:04;14.50;99.90
23471;DHT22;11908;50.806;4.424;2022-09-16T16:28:31;14.50;99.90
23471;DHT22;11908;50.806;4.424;2022-09-16T16:31:15;14.50;99.90
23471;DHT22;11908;50.806;4.424;2022-09-16T16:33:45;14.50;99.90
23471;DHT22;11908;50.806;4.424;2022-09-16T16:36:13;14.30;99.90
23471;DHT22;11908;50.806;4.424;2022-09-16T16:38:39;14.40;99.90
23471;DHT22;11908;50.806;4.424;2022-09-16T16:41:06;14.30;99.90
23471;DHT22;11908;50.806;4.424;2022-09-16T16:43:32;14.10;99.90
23471;DHT22;11908;50.806;4.424;2022-09-16T16:45:57;14.10;99.90
23471;DHT22;11908;50.806;4.424;2022-09-16T16:48:25;14.10;99.90
23471;DHT22;11908;50.806;4.424;2022-09-16T16:51:05;14.00;99.90
23471;DHT22;11908;50.806;4.424;2022-09-16T16:53:32;13.80;99.90
23471;DHT22;11908;50.806;4.424;2022-09-16T16:58:32;13.60;99.90
23471;DHT22;11908;50.806;4.424;2022-09-16T17:01:16;13.40;99.90
23471;DHT22;11908;50.806;4.424;2022-09-16T17:03:43;13.20;99.90
23471;DHT22;11908;50.806;4.424;2022-09-16T17:06:09;13.10;99.90
23471;DHT22;11908;50.806;4.424;2022-09-16T17:08:35;12.90;99.90
23471;DHT22;11908;50.806;4.424;2022-09-16T17:11:08;12.90;99.90
23471;DHT22;11908;50.806;4.424;2022-09-16T17:13:36;12.80;99.90
23471;DHT22;11908;50.806;4.424;2022-09-16T17:16:02;12.70;99.90
23471;DHT22;11908;50.806;4.424;2022-09-16T17:18:28;12.70;99.90
23471;DHT22;11908;50.806;4.424;2022-09-16T17:21:06;12.70;99.90
23471;DHT22;11908;50.806;4.424;2022-09-16T17:23:32;12.60;99.90
23471;DHT22;11908;50.806;4.424;2022-09-16T17:25:59;12.70;99.90
23471;DHT22;11908;50.806;4.424;2022-09-16T17:28:24;12.60;99.90
23471;DHT22;11908;50.806;4.424;2022-09-16T17:30:50;12.60;99.90
23471;DHT22;11908;50.806;4.424;2022-09-16T17:33:16;12.40;99.90
23471;DHT22;11908;50.806;4.424;2022-09-16T17:35:41;12.40;99.90
23471;DHT22;11908;50.806;4.424;2022-09-16T17:38:07;12.50;99.90
23471;DHT22;11908;50.806;4.424;2022-09-16T17:40:34;12.60;99.90
23471;DHT22;11908;50.806;4.424;2022-09-16T17:42:59;12.60;99.90
23471;DHT22;11908;50.806;4.424;2022-09-16T17:45:25;12.60;99.90
23471;DHT22;11908;50.806;4.424;2022-09-16T17:47:51;12.60;99.90
23471;DHT22;11908;50.806;4.424;2022-09-16T17:50:16;12.60;99.90
23471;DHT22;11908;50.806;4.424;2022-09-16T17:52:43;12.60;99.90
23471;DHT22;11908;50.806;4.424;2022-09-16T17:55:10;12.60;99.90
23471;DHT22;11908;50.806;4.424;2022-09-16T17:57:36;12.70;99.90
23471;DHT22;11908;50.806;4.424;2022-09-16T18:00:03;12.70;99.90
23471;DHT22;11908;50.806;4.424;2022-09-16T18:02:29;12.70;99.90
23471;DHT22;11908;50.806;4.424;2022-09-16T18:04:55;12.70;99.90
23471;DHT22;11908;50.806;4.424;2022-09-16T18:07:21;12.70;99.90
23471;DHT22;11908;50.806;4.424;2022-09-16T18:09:46;12.70;99.90
23471;DHT22;11908;50.806;4.424;2022-09-16T18:12:12;12.70;99.90
23471;DHT22;11908;50.806;4.424;2022-09-16T18:14:37;12.70;99.90
23471;DHT22;11908;50.806;4.424;2022-09-16T18:17:03;12.70;99.90
23471;DHT22;11908;50.806;4.424;2022-09-16T18:19:29;12.70;99.90
23471;DHT22;11908;50.806;4.424;2022-09-16T18:21:54;12.60;99.90
23471;DHT22;11908;50.806;4.424;2022-09-16T18:24:20;12.60;99.90
23471;DHT22;11908;50.806;4.424;2022-09-16T18:26:46;12.70;99.90
23471;DHT22;11908;50.806;4.424;2022-09-16T18:29:12;12.60;99.90
23471;DHT22;11908;50.806;4.424;2022-09-16T18:31:40;12.60;99.90
23471;DHT22;11908;50.806;4.424;2022-09-16T18:34:06;12.60;99.90
23471;DHT22;11908;50.806;4.424;2022-09-16T18:36:32;12.60;99.90